createdAt,value
2023-03-22T00:01:18.639Z,1003.46
2023-03-22T00:04:18.642Z,1003.43
2023-03-22T00:07:18.646Z,1003.44
2023-03-22T00:10:18.655Z,1003.4
2023-03-22T00:13:18.643Z,1003.39
2023-03-22T00:16:18.679Z,1003.33
2023-03-22T00:19:18.654Z,1003.33
2023-03-22T00:22:18.660Z,1003.29
2023-03-22T00:25:18.649Z,1003.26
2023-03-22T00:28:18.689Z,1003.21
2023-03-22T00:31:18.671Z,1003.18
2023-03-22T00:34:18.646Z,1003.2
2023-03-22T00:37:18.640Z,1003.16
2023-03-22T00:40:18.654Z,1003.13
2023-03-22T00:43:18.642Z,1003.13
2023-03-22T00:46:18.720Z,1003.12
2023-03-22T00:49:18.651Z,1003.13
2023-03-22T00:52:18.660Z,1003.11
2023-03-22T00:55:18.664Z,1003.09
2023-03-22T00:58:18.671Z,1003.07
2023-03-22T01:01:18.683Z,1003.01
2023-03-22T01:04:18.649Z,1002.96
2023-03-22T01:07:18.658Z,1002.95
2023-03-22T01:10:18.653Z,1002.9
2023-03-22T01:13:18.652Z,1002.87
2023-03-22T01:16:18.681Z,1002.89
2023-03-22T01:19:18.650Z,1002.89
2023-03-22T01:22:18.661Z,1002.9
2023-03-22T01:25:18.639Z,1002.9
2023-03-22T01:28:18.644Z,1002.88
2023-03-22T01:31:18.699Z,1002.86
2023-03-22T01:34:18.662Z,1002.76
2023-03-22T01:37:18.641Z,1002.8
2023-03-22T01:40:18.642Z,1002.76
2023-03-22T01:43:18.639Z,1002.77
2023-03-22T01:46:18.698Z,1002.75
2023-03-22T01:49:18.813Z,1002.73
2023-03-22T01:52:18.641Z,1002.73
2023-03-22T01:55:18.651Z,1002.71
2023-03-22T01:58:18.655Z,1002.71
2023-03-22T02:01:18.696Z,1002.64
2023-03-22T02:04:18.741Z,1002.59
2023-03-22T02:07:18.637Z,1002.54
2023-03-22T02:10:18.646Z,1002.5
2023-03-22T02:13:18.665Z,1002.44
2023-03-22T02:16:18.708Z,1002.41
2023-03-22T02:19:18.644Z,1002.37
2023-03-22T02:22:18.639Z,1002.35
2023-03-22T02:25:18.629Z,1002.31
2023-03-22T02:28:18.733Z,1002.3
2023-03-22T02:31:18.711Z,1002.35
2023-03-22T02:34:18.656Z,1002.33
2023-03-22T02:37:18.631Z,1002.25
2023-03-22T02:40:18.657Z,1002.23
2023-03-22T02:43:18.623Z,1002.24
2023-03-22T02:46:18.665Z,1002.3
2023-03-22T02:49:18.655Z,1002.36
2023-03-22T02:52:18.629Z,1002.32
2023-03-22T02:55:18.651Z,1002.28
2023-03-22T02:58:18.624Z,1002.31
2023-03-22T03:01:18.685Z,1002.33
2023-03-22T03:04:18.632Z,1002.39
2023-03-22T03:07:18.633Z,1002.3
2023-03-22T03:10:18.624Z,1002.24
2023-03-22T03:13:18.617Z,1002.28
2023-03-22T03:16:18.654Z,1002.25
2023-03-22T03:19:18.624Z,1002.24
2023-03-22T03:22:18.628Z,1002.25
2023-03-22T03:25:18.638Z,1002.22
2023-03-22T03:28:18.632Z,1002.17
2023-03-22T03:31:18.654Z,1002.16
2023-03-22T03:34:18.619Z,1002.1
2023-03-22T03:37:18.619Z,1002.08
2023-03-22T03:40:18.667Z,1002.03
2023-03-22T03:43:18.609Z,1002.05
2023-03-22T03:46:18.594Z,1002.06
2023-03-22T03:49:18.737Z,1002
2023-03-22T03:52:18.596Z,1002.01
2023-03-22T03:55:18.615Z,1001.98
2023-03-22T03:58:18.607Z,1001.92
2023-03-22T04:01:18.606Z,1001.89
2023-03-22T04:04:18.645Z,1001.87
2023-03-22T04:07:18.626Z,1001.87
2023-03-22T04:10:18.593Z,1001.89
2023-03-22T04:13:18.600Z,1001.91
2023-03-22T04:16:18.689Z,1001.89
2023-03-22T04:19:18.598Z,1001.91
2023-03-22T04:22:18.631Z,1001.87
2023-03-22T04:25:18.596Z,1001.84
2023-03-22T04:28:18.591Z,1001.79
2023-03-22T04:31:18.623Z,1001.79
2023-03-22T04:34:18.591Z,1001.75
2023-03-22T04:37:18.595Z,1001.68
2023-03-22T04:40:18.606Z,1001.66
2023-03-22T04:43:18.603Z,1001.67
2023-03-22T04:46:18.617Z,1001.64
2023-03-22T04:49:18.593Z,1001.64
2023-03-22T04:52:18.584Z,1001.64
2023-03-22T04:55:18.586Z,1001.64
2023-03-22T04:58:18.583Z,1001.64
2023-03-22T05:01:18.648Z,1001.62
2023-03-22T05:04:18.578Z,1001.61
2023-03-22T05:07:18.582Z,1001.65
2023-03-22T05:10:18.596Z,1001.67
2023-03-22T05:13:18.579Z,1001.66
2023-03-22T05:16:18.609Z,1001.66
2023-03-22T05:19:18.600Z,1001.71
2023-03-22T05:22:18.614Z,1001.76
2023-03-22T05:25:18.589Z,1001.75
2023-03-22T05:28:18.577Z,1001.76
2023-03-22T05:31:18.589Z,1001.76
2023-03-22T05:34:18.577Z,1001.7
2023-03-22T05:37:18.588Z,1001.76
2023-03-22T05:40:18.649Z,1001.77
2023-03-22T05:43:19.942Z,1001.76
2023-03-22T05:46:19.795Z,1001.76
2023-03-22T05:49:19.781Z,1001.8
2023-03-22T05:52:19.795Z,1001.82
2023-03-22T05:55:19.770Z,1001.83
2023-03-22T05:58:19.785Z,1001.86
2023-03-22T06:01:19.778Z,1001.85
2023-03-22T06:04:19.757Z,1001.79
2023-03-22T06:07:19.787Z,1001.8
2023-03-22T06:10:19.842Z,1001.8
2023-03-22T06:13:19.882Z,1001.73
2023-03-22T06:16:19.844Z,1001.69
2023-03-22T06:19:19.827Z,1001.66
2023-03-22T06:22:19.762Z,1001.66
2023-03-22T06:25:19.780Z,1001.69
2023-03-22T06:28:19.786Z,1001.74
2023-03-22T06:31:19.822Z,1001.79
2023-03-22T06:34:19.762Z,1001.81
2023-03-22T06:37:19.750Z,1001.86
2023-03-22T06:40:19.741Z,1001.89
2023-03-22T06:43:19.710Z,1001.94
2023-03-22T06:46:19.776Z,1001.99
2023-03-22T06:49:19.779Z,1002.03
2023-03-22T06:52:19.750Z,1002
2023-03-22T06:55:19.758Z,1002.08
2023-03-22T06:58:19.743Z,1002.04
2023-03-22T07:01:19.783Z,1002
2023-03-22T07:04:19.773Z,1002.03
2023-03-22T07:07:19.727Z,1002.06
2023-03-22T07:10:19.768Z,1002
2023-03-22T07:13:19.694Z,1001.99
2023-03-22T07:16:20.152Z,1002.08
2023-03-22T07:19:19.761Z,1002.04
2023-03-22T07:22:19.732Z,1001.98
2023-03-22T07:25:19.734Z,1001.98
2023-03-22T07:28:19.735Z,1001.99
2023-03-22T07:31:19.743Z,1001.9
2023-03-22T07:34:19.723Z,1001.88
2023-03-22T07:37:19.740Z,1001.88
2023-03-22T07:40:19.725Z,1001.82
2023-03-22T07:43:19.730Z,1001.77
2023-03-22T07:46:19.755Z,1001.81
2023-03-22T07:49:19.732Z,1001.84
2023-03-22T07:52:19.723Z,1001.83
2023-03-22T07:55:19.735Z,1001.78
2023-03-22T07:58:19.741Z,1001.75
2023-03-22T08:01:19.733Z,1001.68
2023-03-22T08:04:19.740Z,1001.69
2023-03-22T08:07:19.723Z,1001.69
2023-03-22T08:10:19.763Z,1001.68
2023-03-22T08:13:19.731Z,1001.69
2023-03-22T08:16:19.768Z,1001.71
2023-03-22T08:19:19.776Z,1001.69
2023-03-22T08:22:19.717Z,1001.71
2023-03-22T08:25:19.742Z,1001.73
2023-03-22T08:28:19.752Z,1001.77
2023-03-22T08:31:19.803Z,1001.79
2023-03-22T08:34:19.740Z,1001.73
2023-03-22T08:37:19.726Z,1001.77
2023-03-22T08:40:19.760Z,1001.71
2023-03-22T08:43:19.729Z,1001.69
2023-03-22T08:46:19.775Z,1001.63
2023-03-22T08:49:19.710Z,1001.61
2023-03-22T08:52:19.755Z,1001.56
2023-03-22T08:55:19.713Z,1001.53
2023-03-22T08:58:19.716Z,1001.47
2023-03-22T09:01:19.801Z,1001.48
2023-03-22T09:04:19.783Z,1001.5
2023-03-22T09:07:19.731Z,1001.52
2023-03-22T09:10:19.718Z,1001.43
2023-03-22T09:13:19.728Z,1001.46
2023-03-22T09:16:19.774Z,1001.39
2023-03-22T09:19:19.710Z,1001.45
2023-03-22T09:22:19.712Z,1001.47
2023-03-22T09:25:19.710Z,1001.45
2023-03-22T09:28:19.753Z,1001.35
2023-03-22T09:31:20.621Z,1001.39
2023-03-22T09:34:19.738Z,1001.35
2023-03-22T09:37:19.704Z,1001.29
2023-03-22T09:40:19.706Z,1001.22
2023-03-22T09:43:19.703Z,1001.2
2023-03-22T09:46:19.784Z,1001.07
2023-03-22T09:49:19.703Z,1000.97
2023-03-22T09:52:19.768Z,1001.04
2023-03-22T09:55:19.716Z,1000.96
2023-03-22T09:58:19.755Z,1000.89
2023-03-22T10:01:21.050Z,1000.88
2023-03-22T10:04:19.749Z,1000.82
2023-03-22T10:07:19.697Z,1000.79
2023-03-22T10:10:19.692Z,1000.8
2023-03-22T10:13:19.728Z,1000.74
2023-03-22T10:16:19.735Z,1000.76
2023-03-22T10:19:19.683Z,1000.76
2023-03-22T10:22:19.743Z,1000.81
2023-03-22T10:25:19.715Z,1000.73
2023-03-22T10:28:19.695Z,1000.78
2023-03-22T10:31:19.742Z,1000.79
2023-03-22T10:34:19.705Z,1000.76
2023-03-22T10:37:19.700Z,1000.74
2023-03-22T10:40:19.723Z,1000.74
2023-03-22T10:43:19.692Z,1000.7
2023-03-22T10:46:19.716Z,1000.76
2023-03-22T10:49:19.694Z,1000.74
2023-03-22T10:52:19.687Z,1000.73
2023-03-22T10:55:19.726Z,1000.75
2023-03-22T10:58:20.404Z,1000.72
2023-03-22T11:01:20.393Z,1000.64
2023-03-22T11:04:20.286Z,1000.62
2023-03-22T11:07:20.292Z,1000.7
2023-03-22T11:10:20.338Z,1000.67
2023-03-22T11:13:20.290Z,1000.62
2023-03-22T11:16:20.378Z,1000.55
2023-03-22T11:19:20.282Z,1000.54
2023-03-22T11:22:20.280Z,1000.5
2023-03-22T11:25:20.309Z,1000.46
2023-03-22T11:28:20.284Z,1000.4
2023-03-22T11:31:20.361Z,1000.37
2023-03-22T11:34:20.272Z,1000.37
2023-03-22T11:37:20.311Z,1000.39
2023-03-22T11:40:20.312Z,1000.37
2023-03-22T11:43:20.283Z,1000.31
2023-03-22T11:46:20.342Z,1000.3
2023-03-22T11:49:20.313Z,1000.28
2023-03-22T11:52:20.301Z,1000.17
2023-03-22T11:55:20.274Z,1000.12
2023-03-22T11:58:21.189Z,1000.14
2023-03-22T12:01:20.265Z,1000.14
2023-03-22T12:04:20.344Z,1000.14
2023-03-22T12:07:20.265Z,1000.06
2023-03-22T12:10:20.261Z,1000.07
2023-03-22T12:13:20.261Z,1000.03
2023-03-22T12:16:20.795Z,1000.03
2023-03-22T12:19:20.251Z,1000
2023-03-22T12:22:20.247Z,999.97
2023-03-22T12:25:20.272Z,999.98
2023-03-22T12:28:20.275Z,1000.03
2023-03-22T12:31:20.293Z,999.95
2023-03-22T12:34:20.286Z,999.91
2023-03-22T12:37:20.272Z,999.92
2023-03-22T12:40:20.266Z,999.89
2023-03-22T12:43:20.249Z,999.87
2023-03-22T12:46:20.277Z,999.8
2023-03-22T12:49:20.272Z,999.84
2023-03-22T12:52:20.271Z,999.85
2023-03-22T12:55:20.254Z,999.72
2023-03-22T12:58:20.244Z,999.65
2023-03-22T13:01:20.248Z,999.67
2023-03-22T13:04:20.362Z,999.63
2023-03-22T13:07:20.272Z,999.67
2023-03-22T13:10:20.249Z,999.63
2023-03-22T13:13:20.235Z,999.55
2023-03-22T13:16:20.284Z,999.53
2023-03-22T13:19:20.267Z,999.51
2023-03-22T13:22:20.228Z,999.46
2023-03-22T13:25:20.239Z,999.47
2023-03-22T13:28:20.237Z,999.49
2023-03-22T13:31:20.263Z,999.42
2023-03-22T13:34:20.227Z,999.38
2023-03-22T13:37:20.239Z,999.4
2023-03-22T13:40:20.239Z,999.32
2023-03-22T13:43:20.243Z,999.24
2023-03-22T13:46:20.416Z,999.27
2023-03-22T13:49:20.218Z,999.27
2023-03-22T13:52:20.216Z,999.2
2023-03-22T13:55:20.226Z,999.18
2023-03-22T13:58:20.248Z,999.27
2023-03-22T14:01:20.252Z,999.19
2023-03-22T14:04:20.212Z,999.24
2023-03-22T14:07:20.244Z,999.21
2023-03-22T14:10:20.227Z,999.18
2023-03-22T14:13:20.251Z,999.18
2023-03-22T14:16:20.270Z,999.25
2023-03-22T14:19:20.210Z,999.23
2023-03-22T14:52:20.207Z,999.05
2023-03-22T14:55:20.215Z,999.05
2023-03-22T14:58:20.230Z,999.06
2023-03-22T15:01:20.231Z,998.98
2023-03-22T15:04:20.193Z,998.92
2023-03-22T15:07:20.202Z,998.95
2023-03-22T15:10:20.203Z,998.88
2023-03-22T15:13:20.188Z,998.94
2023-03-22T15:16:20.269Z,998.91
2023-03-22T15:19:20.197Z,998.85
2023-03-22T15:22:20.188Z,998.87
2023-03-22T15:25:20.208Z,998.86
2023-03-22T15:28:20.196Z,998.87
2023-03-22T15:31:20.243Z,998.84
2023-03-22T15:34:20.215Z,998.83
2023-03-22T15:37:20.207Z,998.87
2023-03-22T15:40:20.220Z,998.91
2023-03-22T15:43:20.180Z,998.91
2023-03-22T15:46:20.259Z,998.94
2023-03-22T15:49:20.181Z,998.93
2023-03-22T15:52:20.179Z,998.89
2023-03-22T15:55:20.189Z,998.88
2023-03-22T15:58:21.797Z,998.92
2023-03-22T16:01:20.253Z,998.9
2023-03-22T16:04:20.182Z,998.89
2023-03-22T16:07:20.179Z,998.87
2023-03-22T16:10:20.189Z,998.88
2023-03-22T16:13:20.196Z,998.89
2023-03-22T16:16:20.188Z,998.85
2023-03-22T16:19:20.184Z,998.85
2023-03-22T16:22:20.173Z,998.92
2023-03-22T16:25:20.214Z,999.01
2023-03-22T16:28:20.169Z,999
2023-03-22T16:31:20.225Z,998.96
2023-03-22T16:34:20.178Z,998.84
2023-03-22T16:37:20.218Z,998.81
2023-03-22T16:40:20.197Z,998.88
2023-03-22T16:43:20.172Z,998.9
2023-03-22T16:46:20.225Z,998.93
2023-03-22T16:49:20.172Z,998.93
2023-03-22T16:52:20.179Z,998.82
2023-03-22T16:55:20.183Z,998.9
2023-03-22T16:58:20.160Z,998.85
2023-03-22T17:01:20.223Z,998.86
2023-03-22T17:04:20.169Z,998.89
2023-03-22T17:07:20.163Z,998.88
2023-03-22T17:10:20.161Z,998.85
2023-03-22T17:13:20.157Z,998.88
2023-03-22T17:16:20.202Z,998.91
2023-03-22T17:19:20.170Z,998.94
2023-03-22T17:22:20.296Z,998.94
2023-03-22T17:25:20.162Z,998.97
2023-03-22T17:28:20.149Z,999.06
2023-03-22T17:31:20.176Z,999.11
2023-03-22T17:34:20.151Z,999.12
2023-03-22T17:37:20.151Z,999.21
2023-03-22T17:40:33.048Z,999.19
2023-03-22T17:43:20.181Z,999.24
2023-03-22T17:49:20.243Z,999.24
2023-03-22T17:55:26.914Z,999.25
2023-03-22T17:58:34.890Z,999.24
2023-03-22T18:01:20.200Z,999.21
2023-03-22T18:04:20.373Z,999.15
2023-03-22T18:07:20.158Z,999.08
2023-03-22T18:10:20.152Z,999.11
2023-03-22T18:13:20.196Z,999.14
2023-03-22T18:16:20.202Z,999.13
2023-03-22T18:19:20.264Z,999.12
2023-03-22T18:22:20.205Z,999.09
2023-03-22T18:25:20.482Z,999.1
2023-03-22T18:28:20.176Z,999.14
2023-03-22T18:31:20.191Z,999.18
2023-03-22T18:34:20.179Z,999.23
2023-03-22T18:37:20.267Z,999.22
2023-03-22T18:40:54.317Z,999.21
2023-03-22T18:43:20.174Z,999.19
2023-03-22T18:46:20.272Z,999.22
2023-03-22T18:49:20.185Z,999.22
2023-03-22T18:52:36.408Z,999.2
2023-03-22T18:55:25.245Z,999.13
2023-03-22T18:58:20.198Z,999.15
2023-03-22T19:01:20.703Z,999.16
2023-03-22T19:04:20.176Z,999.15
2023-03-22T19:07:30.301Z,999.14
2023-03-22T19:10:20.182Z,999.16
2023-03-22T19:13:20.179Z,999.17
2023-03-22T19:16:20.183Z,999.18
2023-03-22T19:19:20.197Z,999.16
2023-03-22T19:22:20.174Z,999.13
2023-03-22T19:25:20.164Z,999.13
2023-03-22T19:28:20.234Z,999.1
2023-03-22T19:31:20.188Z,999.03
2023-03-22T19:34:20.198Z,999.01
2023-03-22T19:37:20.187Z,998.95
2023-03-22T19:41:15.346Z,998.87
2023-03-22T19:43:20.253Z,998.88
2023-03-22T19:46:20.176Z,998.81
2023-03-22T19:49:20.200Z,998.8
2023-03-22T19:52:20.179Z,998.77
2023-03-22T19:55:20.181Z,998.67
2023-03-22T19:58:20.172Z,998.64
2023-03-22T20:01:20.164Z,998.74
2023-03-22T20:04:20.185Z,998.71
2023-03-22T20:07:20.166Z,998.72
2023-03-22T20:10:20.200Z,998.78
2023-03-22T20:13:20.206Z,998.73
2023-03-22T20:16:20.313Z,998.76
2023-03-22T20:19:20.229Z,998.72
2023-03-22T20:22:20.182Z,998.71
2023-03-22T20:25:20.173Z,998.67
2023-03-22T20:28:20.182Z,998.67
2023-03-22T20:31:20.202Z,998.53
2023-03-22T20:34:20.186Z,998.54
2023-03-22T20:37:20.181Z,998.56
2023-03-22T20:40:20.167Z,998.52
2023-03-22T20:43:20.164Z,998.47
2023-03-22T20:46:20.160Z,998.44
2023-03-22T20:49:20.165Z,998.44
2023-03-22T20:52:20.153Z,998.44
2023-03-22T20:55:20.206Z,998.43
2023-03-22T20:58:20.153Z,998.46
2023-03-22T21:01:20.198Z,998.41
2023-03-22T21:04:20.166Z,998.38
2023-03-22T21:07:20.153Z,998.42
2023-03-22T21:10:20.157Z,998.38
2023-03-22T21:13:20.150Z,998.4
2023-03-22T21:16:20.149Z,998.36
2023-03-22T21:19:20.156Z,998.4
2023-03-22T21:22:20.161Z,998.38
2023-03-22T21:25:20.178Z,998.41
2023-03-22T21:28:20.162Z,998.38
2023-03-22T21:31:20.411Z,998.4
2023-03-22T21:34:20.154Z,998.38
2023-03-22T21:37:20.172Z,998.24
2023-03-22T21:40:20.174Z,998.25
2023-03-22T21:43:20.169Z,998.27
2023-03-22T21:46:20.151Z,998.2
2023-03-22T21:49:20.154Z,998.27
2023-03-22T21:52:20.153Z,998.25
2023-03-22T21:55:20.173Z,998.27
2023-03-22T21:58:20.158Z,998.25
2023-03-22T22:01:20.144Z,998.23
2023-03-22T22:04:20.158Z,998.23
2023-03-22T22:07:20.173Z,998.24
2023-03-22T22:10:20.143Z,998.19
2023-03-22T22:13:20.171Z,998.16
2023-03-22T22:16:20.147Z,998.08
2023-03-22T22:19:20.138Z,998.08
2023-03-22T22:22:20.157Z,998.09
2023-03-22T22:25:20.160Z,998.1
2023-03-22T22:28:20.148Z,998.12
2023-03-22T22:31:20.139Z,998.09
2023-03-22T22:34:20.129Z,998.06
2023-03-22T22:37:20.144Z,998.02
2023-03-22T22:40:20.152Z,998
2023-03-22T22:43:20.133Z,997.95
2023-03-22T22:46:20.122Z,997.87
2023-03-22T22:49:20.122Z,997.78
2023-03-22T22:52:20.127Z,997.74
2023-03-22T22:55:20.143Z,997.7
2023-03-22T22:58:20.136Z,997.69
2023-03-22T23:01:20.128Z,997.69
2023-03-22T23:04:20.105Z,997.69
2023-03-22T23:07:20.114Z,997.7
2023-03-22T23:10:20.122Z,997.67
2023-03-22T23:13:20.112Z,997.68
2023-03-22T23:16:20.104Z,997.67
2023-03-22T23:19:20.118Z,997.62
2023-03-22T23:22:20.124Z,997.55
2023-03-22T23:25:20.116Z,997.55
2023-03-22T23:28:20.110Z,997.51
2023-03-22T23:31:20.107Z,997.5
2023-03-22T23:34:20.137Z,997.52
2023-03-22T23:37:20.112Z,997.47
2023-03-22T23:40:20.107Z,997.46
2023-03-22T23:43:20.113Z,997.48
2023-03-22T23:46:20.111Z,997.47
2023-03-22T23:49:20.105Z,997.47
2023-03-22T23:52:20.116Z,997.4
2023-03-22T23:55:20.126Z,997.34
2023-03-22T23:58:20.111Z,997.34
